sensor_id;sensor_type;location;lat;lon;timestamp;P1;durP1;ratioP1;P2;durP2;ratioP2
19863;SDS011;10094;48.820;9.226;2022-12-19T00:04:06;38.97;;;20.58;;
19863;SDS011;10094;48.820;9.226;2022-12-19T00:11:08;43.70;;;21.10;;
19863;SDS011;10094;48.820;9.226;2022-12-19T00:17:52;38.15;;;21.30;;
19863;SDS011;10094;48.820;9.226;2022-12-19T00:24:34;34.83;;;20.20;;
19863;SDS011;10094;48.820;9.226;2022-12-19T00:31:17;40.65;;;21.08;;
19863;SDS011;10094;48.820;9.226;2022-12-19T00:38:00;42.25;;;21.77;;
19863;SDS011;10094;48.820;9.226;2022-12-19T00:44:43;45.42;;;22.63;;
19863;SDS011;10094;48.820;9.226;2022-12-19T00:51:27;41.78;;;20.85;;
19863;SDS011;10094;48.820;9.226;2022-12-19T00:58:28;43.00;;;19.30;;
19863;SDS011;10094;48.820;9.226;2022-12-19T01:05:40;45.17;;;21.30;;
19863;SDS011;10094;48.820;9.226;2022-12-19T01:12:23;38.00;;;20.92;;
19863;SDS011;10094;48.820;9.226;2022-12-19T01:19:25;38.97;;;20.27;;
19863;SDS011;10094;48.820;9.226;2022-12-19T01:26:08;44.78;;;21.58;;
19863;SDS011;10094;48.820;9.226;2022-12-19T01:32:51;43.78;;;23.65;;
19863;SDS011;10094;48.820;9.226;2022-12-19T01:39:34;45.58;;;24.63;;
19863;SDS011;10094;48.820;9.226;2022-12-19T01:46:18;44.22;;;24.92;;
19863;SDS011;10094;48.820;9.226;2022-12-19T01:53:08;48.13;;;24.30;;
19863;SDS011;10094;48.820;9.226;2022-12-19T01:59:55;46.33;;;25.75;;
19863;SDS011;10094;48.820;9.226;2022-12-19T02:06:40;47.85;;;24.25;;
19863;SDS011;10094;48.820;9.226;2022-12-19T02:13:23;38.83;;;22.27;;
19863;SDS011;10094;48.820;9.226;2022-12-19T02:34:29;47.30;;;24.88;;
19863;SDS011;10094;48.820;9.226;2022-12-19T02:41:27;46.17;;;24.48;;
19863;SDS011;10094;48.820;9.226;2022-12-19T02:48:29;44.97;;;24.58;;
19863;SDS011;10094;48.820;9.226;2022-12-19T02:55:15;44.08;;;23.17;;
19863;SDS011;10094;48.820;9.226;2022-12-19T03:09:02;46.33;;;25.63;;
19863;SDS011;10094;48.820;9.226;2022-12-19T03:15:56;42.80;;;21.52;;
19863;SDS011;10094;48.820;9.226;2022-12-19T03:22:39;44.13;;;23.95;;
19863;SDS011;10094;48.820;9.226;2022-12-19T03:29:39;45.05;;;24.17;;
19863;SDS011;10094;48.820;9.226;2022-12-19T03:36:27;47.03;;;23.70;;
19863;SDS011;10094;48.820;9.226;2022-12-19T03:43:14;46.97;;;24.27;;
19863;SDS011;10094;48.820;9.226;2022-12-19T03:49:58;42.97;;;22.67;;
19863;SDS011;10094;48.820;9.226;2022-12-19T03:56:42;39.35;;;23.52;;
19863;SDS011;10094;48.820;9.226;2022-12-19T04:03:32;43.67;;;21.73;;
19863;SDS011;10094;48.820;9.226;2022-12-19T04:10:16;42.70;;;21.17;;
19863;SDS011;10094;48.820;9.226;2022-12-19T04:24:39;45.33;;;22.35;;
19863;SDS011;10094;48.820;9.226;2022-12-19T04:31:24;41.53;;;21.77;;
19863;SDS011;10094;48.820;9.226;2022-12-19T04:38:09;40.63;;;21.10;;
19863;SDS011;10094;48.820;9.226;2022-12-19T04:44:52;40.72;;;19.38;;
19863;SDS011;10094;48.820;9.226;2022-12-19T04:51:35;43.30;;;22.58;;
19863;SDS011;10094;48.820;9.226;2022-12-19T04:58:17;43.65;;;20.52;;
19863;SDS011;10094;48.820;9.226;2022-12-19T05:05:03;42.10;;;21.50;;
19863;SDS011;10094;48.820;9.226;2022-12-19T05:11:50;39.72;;;21.60;;
19863;SDS011;10094;48.820;9.226;2022-12-19T05:18:32;43.90;;;21.60;;
19863;SDS011;10094;48.820;9.226;2022-12-19T05:25:15;38.53;;;19.90;;
19863;SDS011;10094;48.820;9.226;2022-12-19T05:31:58;38.20;;;19.25;;
19863;SDS011;10094;48.820;9.226;2022-12-19T05:38:41;35.63;;;20.08;;
19863;SDS011;10094;48.820;9.226;2022-12-19T05:45:23;42.47;;;22.65;;
19863;SDS011;10094;48.820;9.226;2022-12-19T05:52:06;43.40;;;22.58;;
19863;SDS011;10094;48.820;9.226;2022-12-19T05:58:51;40.78;;;21.67;;
19863;SDS011;10094;48.820;9.226;2022-12-19T06:05:55;46.60;;;23.15;;
19863;SDS011;10094;48.820;9.226;2022-12-19T06:12:37;41.83;;;21.13;;
19863;SDS011;10094;48.820;9.226;2022-12-19T06:19:20;41.78;;;22.30;;
19863;SDS011;10094;48.820;9.226;2022-12-19T06:26:03;47.65;;;22.17;;
19863;SDS011;10094;48.820;9.226;2022-12-19T06:32:47;48.28;;;22.63;;
19863;SDS011;10094;48.820;9.226;2022-12-19T06:39:29;47.65;;;22.38;;
19863;SDS011;10094;48.820;9.226;2022-12-19T06:46:11;46.60;;;22.20;;
19863;SDS011;10094;48.820;9.226;2022-12-19T06:52:54;40.90;;;22.13;;
19863;SDS011;10094;48.820;9.226;2022-12-19T06:59:37;43.78;;;23.17;;
19863;SDS011;10094;48.820;9.226;2022-12-19T07:06:39;47.42;;;22.63;;
19863;SDS011;10094;48.820;9.226;2022-12-19T07:13:28;45.42;;;21.67;;
19863;SDS011;10094;48.820;9.226;2022-12-19T07:20:10;47.05;;;22.02;;
19863;SDS011;10094;48.820;9.226;2022-12-19T07:26:54;45.95;;;22.65;;
19863;SDS011;10094;48.820;9.226;2022-12-19T07:33:36;39.13;;;20.20;;
19863;SDS011;10094;48.820;9.226;2022-12-19T07:40:19;37.67;;;20.92;;
19863;SDS011;10094;48.820;9.226;2022-12-19T07:47:01;36.03;;;19.38;;
19863;SDS011;10094;48.820;9.226;2022-12-19T07:53:43;38.80;;;20.58;;
19863;SDS011;10094;48.820;9.226;2022-12-19T08:00:26;36.22;;;19.85;;
19863;SDS011;10094;48.820;9.226;2022-12-19T08:07:08;37.22;;;20.17;;
19863;SDS011;10094;48.820;9.226;2022-12-19T08:13:52;38.63;;;22.45;;
19863;SDS011;10094;48.820;9.226;2022-12-19T08:20:35;37.05;;;19.88;;
19863;SDS011;10094;48.820;9.226;2022-12-19T08:27:17;38.03;;;20.65;;
19863;SDS011;10094;48.820;9.226;2022-12-19T08:33:59;38.20;;;20.65;;
19863;SDS011;10094;48.820;9.226;2022-12-19T08:48:09;36.08;;;19.10;;
19863;SDS011;10094;48.820;9.226;2022-12-19T08:54:52;42.60;;;21.35;;
19863;SDS011;10094;48.820;9.226;2022-12-19T09:01:34;35.92;;;21.02;;
19863;SDS011;10094;48.820;9.226;2022-12-19T09:08:17;42.67;;;20.77;;
19863;SDS011;10094;48.820;9.226;2022-12-19T09:14:59;35.35;;;20.27;;
19863;SDS011;10094;48.820;9.226;2022-12-19T09:21:41;34.35;;;18.33;;
19863;SDS011;10094;48.820;9.226;2022-12-19T09:28:24;29.40;;;18.40;;
19863;SDS011;10094;48.820;9.226;2022-12-19T09:35:08;32.33;;;18.30;;
19863;SDS011;10094;48.820;9.226;2022-12-19T09:41:55;33.75;;;19.15;;
19863;SDS011;10094;48.820;9.226;2022-12-19T09:48:53;38.40;;;19.52;;
19863;SDS011;10094;48.820;9.226;2022-12-19T09:55:38;29.77;;;17.63;;
19863;SDS011;10094;48.820;9.226;2022-12-19T10:02:30;30.85;;;18.45;;
19863;SDS011;10094;48.820;9.226;2022-12-19T10:09:34;30.73;;;18.15;;
19863;SDS011;10094;48.820;9.226;2022-12-19T10:23:25;33.42;;;18.02;;
19863;SDS011;10094;48.820;9.226;2022-12-19T10:30:44;34.50;;;19.23;;
19863;SDS011;10094;48.820;9.226;2022-12-19T10:37:41;32.13;;;18.38;;
19863;SDS011;10094;48.820;9.226;2022-12-19T10:44:57;25.23;;;17.27;;
19863;SDS011;10094;48.820;9.226;2022-12-19T10:58:36;33.30;;;18.00;;
19863;SDS011;10094;48.820;9.226;2022-12-19T11:05:24;30.48;;;18.20;;
19863;SDS011;10094;48.820;9.226;2022-12-19T11:12:15;26.55;;;17.38;;
19863;SDS011;10094;48.820;9.226;2022-12-19T11:19:40;28.33;;;18.42;;
19863;SDS011;10094;48.820;9.226;2022-12-19T11:26:43;30.50;;;18.13;;
19863;SDS011;10094;48.820;9.226;2022-12-19T11:33:52;26.48;;;17.73;;
19863;SDS011;10094;48.820;9.226;2022-12-19T11:40:38;27.33;;;17.40;;
19863;SDS011;10094;48.820;9.226;2022-12-19T11:47:38;24.67;;;16.52;;
19863;SDS011;10094;48.820;9.226;2022-12-19T12:01:40;25.45;;;15.70;;
19863;SDS011;10094;48.820;9.226;2022-12-19T12:08:50;25.48;;;15.40;;
19863;SDS011;10094;48.820;9.226;2022-12-19T12:16:10;26.23;;;17.60;;
19863;SDS011;10094;48.820;9.226;2022-12-19T12:45:44;28.35;;;17.75;;
19863;SDS011;10094;48.820;9.226;2022-12-19T12:52:38;26.23;;;17.80;;
19863;SDS011;10094;48.820;9.226;2022-12-19T12:59:24;26.98;;;17.40;;
19863;SDS011;10094;48.820;9.226;2022-12-19T13:13:17;36.42;;;20.98;;
19863;SDS011;10094;48.820;9.226;2022-12-19T13:26:53;32.20;;;19.10;;
19863;SDS011;10094;48.820;9.226;2022-12-19T13:40:54;28.75;;;18.60;;
19863;SDS011;10094;48.820;9.226;2022-12-19T13:47:39;26.02;;;17.92;;
19863;SDS011;10094;48.820;9.226;2022-12-19T13:54:27;31.98;;;19.42;;
19863;SDS011;10094;48.820;9.226;2022-12-19T14:01:17;28.05;;;20.05;;
19863;SDS011;10094;48.820;9.226;2022-12-19T14:08:07;30.65;;;20.33;;
19863;SDS011;10094;48.820;9.226;2022-12-19T14:22:24;33.20;;;19.15;;
19863;SDS011;10094;48.820;9.226;2022-12-19T14:29:12;33.08;;;19.08;;
19863;SDS011;10094;48.820;9.226;2022-12-19T14:36:28;30.65;;;19.27;;
19863;SDS011;10094;48.820;9.226;2022-12-19T14:50:37;31.63;;;19.85;;
19863;SDS011;10094;48.820;9.226;2022-12-19T14:57:40;24.92;;;16.50;;
19863;SDS011;10094;48.820;9.226;2022-12-19T15:04:47;27.75;;;16.80;;
19863;SDS011;10094;48.820;9.226;2022-12-19T15:11:45;29.33;;;18.48;;
19863;SDS011;10094;48.820;9.226;2022-12-19T15:19:12;30.00;;;19.30;;
19863;SDS011;10094;48.820;9.226;2022-12-19T15:25:56;31.85;;;18.05;;
19863;SDS011;10094;48.820;9.226;2022-12-19T15:32:45;30.23;;;19.73;;
19863;SDS011;10094;48.820;9.226;2022-12-19T15:39:42;30.23;;;19.00;;
19863;SDS011;10094;48.820;9.226;2022-12-19T15:46:27;34.83;;;20.20;;
19863;SDS011;10094;48.820;9.226;2022-12-19T15:53:16;30.15;;;18.50;;
19863;SDS011;10094;48.820;9.226;2022-12-19T16:00:23;27.80;;;18.90;;
19863;SDS011;10094;48.820;9.226;2022-12-19T16:07:15;34.45;;;21.05;;
19863;SDS011;10094;48.820;9.226;2022-12-19T16:13:59;35.80;;;20.23;;
19863;SDS011;10094;48.820;9.226;2022-12-19T16:20:41;33.67;;;19.92;;
19863;SDS011;10094;48.820;9.226;2022-12-19T16:27:25;33.17;;;19.75;;
19863;SDS011;10094;48.820;9.226;2022-12-19T16:34:14;29.58;;;19.48;;
19863;SDS011;10094;48.820;9.226;2022-12-19T16:41:04;27.58;;;18.52;;
19863;SDS011;10094;48.820;9.226;2022-12-19T16:47:48;27.02;;;17.98;;
19863;SDS011;10094;48.820;9.226;2022-12-19T16:54:33;31.83;;;20.27;;
19863;SDS011;10094;48.820;9.226;2022-12-19T17:01:17;38.33;;;24.40;;
19863;SDS011;10094;48.820;9.226;2022-12-19T17:08:09;28.17;;;17.95;;
19863;SDS011;10094;48.820;9.226;2022-12-19T17:14:53;22.52;;;16.23;;
19863;SDS011;10094;48.820;9.226;2022-12-19T17:21:37;25.88;;;16.08;;
19863;SDS011;10094;48.820;9.226;2022-12-19T17:28:20;21.25;;;14.93;;
19863;SDS011;10094;48.820;9.226;2022-12-19T17:35:03;26.65;;;16.48;;
19863;SDS011;10094;48.820;9.226;2022-12-19T17:42:15;25.30;;;15.73;;
19863;SDS011;10094;48.820;9.226;2022-12-19T17:49:03;25.63;;;16.17;;
19863;SDS011;10094;48.820;9.226;2022-12-19T17:55:46;27.88;;;16.88;;
19863;SDS011;10094;48.820;9.226;2022-12-19T18:02:28;25.77;;;16.45;;
19863;SDS011;10094;48.820;9.226;2022-12-19T18:09:18;24.63;;;15.30;;
19863;SDS011;10094;48.820;9.226;2022-12-19T18:16:02;24.20;;;15.93;;
19863;SDS011;10094;48.820;9.226;2022-12-19T18:22:45;27.38;;;17.27;;
19863;SDS011;10094;48.820;9.226;2022-12-19T18:29:27;51.03;;;32.53;;
19863;SDS011;10094;48.820;9.226;2022-12-19T18:36:15;27.95;;;17.20;;
19863;SDS011;10094;48.820;9.226;2022-12-19T18:43:03;27.05;;;16.85;;
19863;SDS011;10094;48.820;9.226;2022-12-19T18:49:46;22.88;;;15.88;;
19863;SDS011;10094;48.820;9.226;2022-12-19T18:56:31;26.17;;;16.42;;
19863;SDS011;10094;48.820;9.226;2022-12-19T19:03:15;24.73;;;16.73;;
19863;SDS011;10094;48.820;9.226;2022-12-19T19:10:09;22.48;;;14.95;;
19863;SDS011;10094;48.820;9.226;2022-12-19T19:17:22;25.73;;;16.55;;
19863;SDS011;10094;48.820;9.226;2022-12-19T19:24:16;20.83;;;14.30;;
19863;SDS011;10094;48.820;9.226;2022-12-19T19:31:20;25.40;;;16.33;;
19863;SDS011;10094;48.820;9.226;2022-12-19T19:38:05;24.45;;;16.17;;
19863;SDS011;10094;48.820;9.226;2022-12-19T19:44:51;27.42;;;16.77;;
19863;SDS011;10094;48.820;9.226;2022-12-19T19:51:35;26.02;;;17.08;;
19863;SDS011;10094;48.820;9.226;2022-12-19T19:58:17;27.48;;;18.30;;
19863;SDS011;10094;48.820;9.226;2022-12-19T20:04:59;25.23;;;16.95;;
19863;SDS011;10094;48.820;9.226;2022-12-19T20:11:42;28.23;;;17.55;;
19863;SDS011;10094;48.820;9.226;2022-12-19T20:18:24;24.25;;;16.83;;
19863;SDS011;10094;48.820;9.226;2022-12-19T20:25:10;27.02;;;16.52;;
19863;SDS011;10094;48.820;9.226;2022-12-19T20:32:10;27.63;;;17.35;;
19863;SDS011;10094;48.820;9.226;2022-12-19T20:38:55;25.77;;;17.20;;
19863;SDS011;10094;48.820;9.226;2022-12-19T20:45:37;27.25;;;17.52;;
19863;SDS011;10094;48.820;9.226;2022-12-19T20:52:22;27.50;;;17.50;;
19863;SDS011;10094;48.820;9.226;2022-12-19T20:59:31;22.67;;;15.20;;
19863;SDS011;10094;48.820;9.226;2022-12-19T21:06:22;22.08;;;14.07;;
19863;SDS011;10094;48.820;9.226;2022-12-19T21:13:08;20.65;;;14.65;;
19863;SDS011;10094;48.820;9.226;2022-12-19T21:19:50;22.15;;;14.70;;
19863;SDS011;10094;48.820;9.226;2022-12-19T21:26:32;23.38;;;15.68;;
19863;SDS011;10094;48.820;9.226;2022-12-19T21:33:15;24.48;;;15.77;;
19863;SDS011;10094;48.820;9.226;2022-12-19T21:39:57;24.58;;;16.35;;
19863;SDS011;10094;48.820;9.226;2022-12-19T21:46:41;22.83;;;16.27;;
19863;SDS011;10094;48.820;9.226;2022-12-19T21:53:23;22.33;;;14.90;;
19863;SDS011;10094;48.820;9.226;2022-12-19T22:00:07;23.90;;;15.18;;
19863;SDS011;10094;48.820;9.226;2022-12-19T22:06:52;28.42;;;16.83;;
19863;SDS011;10094;48.820;9.226;2022-12-19T22:13:35;31.58;;;18.77;;
19863;SDS011;10094;48.820;9.226;2022-12-19T22:20:22;27.95;;;18.60;;
19863;SDS011;10094;48.820;9.226;2022-12-19T22:27:23;30.65;;;19.48;;
19863;SDS011;10094;48.820;9.226;2022-12-19T22:34:07;30.90;;;19.48;;
19863;SDS011;10094;48.820;9.226;2022-12-19T22:40:51;28.25;;;19.27;;
19863;SDS011;10094;48.820;9.226;2022-12-19T22:47:34;24.60;;;17.38;;
19863;SDS011;10094;48.820;9.226;2022-12-19T22:54:16;27.50;;;18.10;;
19863;SDS011;10094;48.820;9.226;2022-12-19T23:00:58;27.95;;;17.92;;
19863;SDS011;10094;48.820;9.226;2022-12-19T23:07:41;32.33;;;18.55;;
19863;SDS011;10094;48.820;9.226;2022-12-19T23:14:24;34.42;;;20.02;;
19863;SDS011;10094;48.820;9.226;2022-12-19T23:21:07;29.90;;;19.60;;
19863;SDS011;10094;48.820;9.226;2022-12-19T23:27:54;29.73;;;19.75;;
19863;SDS011;10094;48.820;9.226;2022-12-19T23:34:37;32.20;;;20.50;;
19863;SDS011;10094;48.820;9.226;2022-12-19T23:41:19;39.13;;;20.83;;
19863;SDS011;10094;48.820;9.226;2022-12-19T23:48:02;35.10;;;20.50;;
19863;SDS011;10094;48.820;9.226;2022-12-19T23:54:45;26.75;;;17.50;;
